createdAt,value
2022-11-15T00:01:42.733Z,3.70
2022-11-15T00:04:11.361Z,3.70
2022-11-15T00:06:38.361Z,3.80
2022-11-15T00:09:05.414Z,3.70
2022-11-15T00:11:32.360Z,3.70
2022-11-15T00:13:59.396Z,3.70
2022-11-15T00:16:26.379Z,3.80
2022-11-15T00:18:53.330Z,3.80
2022-11-15T00:21:20.310Z,3.80
2022-11-15T00:23:47.281Z,3.80
2022-11-15T00:26:15.756Z,3.70
2022-11-15T00:28:43.251Z,3.80
2022-11-15T00:31:13.662Z,3.80
2022-11-15T00:33:40.594Z,3.80
2022-11-15T00:36:12.792Z,3.80
2022-11-15T00:38:41.062Z,3.80
2022-11-15T00:41:10.069Z,3.80
2022-11-15T00:43:37.451Z,3.80
2022-11-15T00:46:04.703Z,3.90
2022-11-15T00:48:32.494Z,4.00
2022-11-15T00:50:59.532Z,3.90
2022-11-15T00:53:26.468Z,4.00
2022-11-15T00:55:53.693Z,3.90
2022-11-15T00:58:20.867Z,3.90
2022-11-15T01:00:47.847Z,3.90
2022-11-15T01:03:14.813Z,3.90
2022-11-15T01:05:41.900Z,3.90
2022-11-15T01:08:16.534Z,3.90
2022-11-15T01:10:43.484Z,3.90
2022-11-15T01:13:10.521Z,3.90
2022-11-15T01:15:41.748Z,3.90
2022-11-15T01:18:08.890Z,3.90
2022-11-15T01:20:35.839Z,3.90
2022-11-15T01:23:02.764Z,3.90
2022-11-15T01:25:29.790Z,3.90
2022-11-15T01:27:56.708Z,4.00
2022-11-15T01:30:23.596Z,4.00
2022-11-15T01:32:50.513Z,4.00
2022-11-15T01:35:17.439Z,4.00
2022-11-15T01:37:44.338Z,4.00
2022-11-15T01:40:11.686Z,4.00
2022-11-15T01:42:38.578Z,4.00
2022-11-15T01:45:06.109Z,4.00
2022-11-15T01:47:37.563Z,4.00
2022-11-15T01:50:11.755Z,4.00
2022-11-15T01:52:40.541Z,4.00
2022-11-15T01:55:27.042Z,4.00
2022-11-15T01:57:58.339Z,4.00
2022-11-15T02:00:25.427Z,4.00
2022-11-15T02:02:52.359Z,4.00
2022-11-15T02:05:19.403Z,4.00
2022-11-15T02:07:47.081Z,4.00
2022-11-15T02:10:23.197Z,4.00
2022-11-15T02:12:51.444Z,3.90
2022-11-15T02:15:19.038Z,3.90
2022-11-15T02:18:09.365Z,4.00
2022-11-15T02:21:12.818Z,3.90
2022-11-15T02:24:04.378Z,3.90
2022-11-15T02:26:52.841Z,3.90
2022-11-15T02:29:55.939Z,3.90
2022-11-15T02:32:37.810Z,4.00
2022-11-15T02:35:30.714Z,4.00
2022-11-15T02:38:11.951Z,4.00
2022-11-15T02:40:52.258Z,3.90
2022-11-15T02:43:57.205Z,3.90
2022-11-15T02:46:54.388Z,3.90
2022-11-15T02:49:22.096Z,3.90
2022-11-15T02:51:51.762Z,3.90
2022-11-15T02:54:36.809Z,3.90
2022-11-15T02:57:13.681Z,4.00
2022-11-15T03:00:04.593Z,4.00
2022-11-15T03:02:49.691Z,4.00
2022-11-15T03:05:20.471Z,4.00
2022-11-15T03:07:56.877Z,4.00
2022-11-15T03:10:46.667Z,4.00
2022-11-15T03:13:27.707Z,4.00
2022-11-15T03:15:58.916Z,4.00
2022-11-15T03:18:37.353Z,4.00
2022-11-15T03:21:09.172Z,4.00
2022-11-15T03:23:38.094Z,4.00
2022-11-15T03:26:09.921Z,4.00
2022-11-15T03:29:10.714Z,4.10
2022-11-15T03:31:51.339Z,4.10
2022-11-15T03:34:26.874Z,4.00
2022-11-15T03:36:54.254Z,4.00
2022-11-15T03:39:22.638Z,4.00
2022-11-15T03:41:54.130Z,4.10
2022-11-15T03:44:32.833Z,4.10
2022-11-15T03:47:18.947Z,4.10
2022-11-15T03:50:08.252Z,4.00
2022-11-15T03:52:36.373Z,4.00
2022-11-15T03:55:05.139Z,4.00
2022-11-15T03:57:32.335Z,4.00
2022-11-15T03:59:59.286Z,4.00
2022-11-15T04:02:26.225Z,4.00
2022-11-15T04:04:53.172Z,4.00
2022-11-15T04:07:20.176Z,4.00
2022-11-15T04:10:06.329Z,4.00
2022-11-15T04:12:40.430Z,4.10
2022-11-15T08:17:27.149Z,5.60
2022-11-15T08:19:54.210Z,5.70
2022-11-15T08:22:21.199Z,5.70
2022-11-15T08:24:48.075Z,5.70
2022-11-15T08:27:17.771Z,5.70
2022-11-15T08:29:45.591Z,5.60
2022-11-15T08:32:12.947Z,5.60
2022-11-15T08:34:40.219Z,5.70
2022-11-15T08:37:07.262Z,5.70
2022-11-15T08:39:34.185Z,5.70
2022-11-15T08:42:01.154Z,5.80
2022-11-15T08:44:28.143Z,5.80
2022-11-15T08:46:55.302Z,5.80
2022-11-15T08:49:22.277Z,5.90
2022-11-15T08:51:49.165Z,5.90
2022-11-15T08:54:16.110Z,5.80
2022-11-15T08:56:42.999Z,5.90
2022-11-15T08:59:10.021Z,5.90
2022-11-15T09:01:37.086Z,5.80
2022-11-15T09:04:05.035Z,5.90
2022-11-15T09:06:32.326Z,5.90
2022-11-15T09:08:59.427Z,5.90
2022-11-15T09:11:27.603Z,6.00
2022-11-15T09:13:54.570Z,6.00
2022-11-15T09:16:21.568Z,6.00
2022-11-15T09:18:48.503Z,6.00
2022-11-15T09:21:15.408Z,6.00
2022-11-15T09:23:42.433Z,6.10
2022-11-15T09:26:09.554Z,6.20
2022-11-15T09:28:37.474Z,6.10
2022-11-15T09:34:28.979Z,6.20
2022-11-15T09:36:55.937Z,6.30
2022-11-15T09:39:22.843Z,6.30
2022-11-15T09:41:53.879Z,6.30
2022-11-15T09:44:57.422Z,6.40
2022-11-15T09:47:55.468Z,6.40
2022-11-15T09:50:50.229Z,6.50
2022-11-15T09:56:33.447Z,6.60
2022-11-15T09:59:03.127Z,6.70
2022-11-15T10:01:48.607Z,6.80
2022-11-15T10:04:16.301Z,6.80
2022-11-15T10:06:55.045Z,6.90
2022-11-15T10:09:41.013Z,7.00
2022-11-15T10:12:10.329Z,7.00
2022-11-15T10:14:37.610Z,7.10
2022-11-15T10:17:33.436Z,7.10
2022-11-15T10:20:06.516Z,7.20
2022-11-15T10:22:45.463Z,7.40
2022-11-15T10:25:41.522Z,7.50
2022-11-15T10:28:29.855Z,7.60
2022-11-15T10:30:59.706Z,7.70
2022-11-15T10:33:35.402Z,7.70
2022-11-15T10:36:14.001Z,7.80
2022-11-15T10:38:49.801Z,7.80
2022-11-15T10:41:28.516Z,7.90
2022-11-15T10:44:24.491Z,7.90
2022-11-15T10:46:57.490Z,7.90
2022-11-15T10:49:32.278Z,8.00
2022-11-15T10:52:09.999Z,8.00
2022-11-15T10:54:57.715Z,8.10
2022-11-15T10:57:29.603Z,8.10
2022-11-15T11:00:26.579Z,8.20
2022-11-15T11:02:56.243Z,8.30
2022-11-15T11:05:46.940Z,8.30
2022-11-15T11:08:16.954Z,8.30
2022-11-15T11:11:03.030Z,8.30
2022-11-15T11:13:38.790Z,8.30
2022-11-15T11:16:15.055Z,8.40
2022-11-15T11:19:14.226Z,8.60
2022-11-15T11:21:50.690Z,8.60
2022-11-15T11:24:34.187Z,8.60
2022-11-15T11:27:14.150Z,8.60
2022-11-15T11:30:03.437Z,8.50
2022-11-15T11:32:56.862Z,8.40
2022-11-15T11:35:42.909Z,8.30
2022-11-15T11:38:34.678Z,8.20
2022-11-15T11:41:23.194Z,8.00
2022-11-15T11:44:01.793Z,7.90
2022-11-15T11:47:09.781Z,7.90
2022-11-15T11:49:47.164Z,7.80
2022-11-15T11:52:29.150Z,7.80
2022-11-15T11:55:00.138Z,7.70
2022-11-15T11:57:33.477Z,7.70
2022-11-15T12:00:15.130Z,7.60
2022-11-15T12:03:06.867Z,7.60
2022-11-15T12:05:42.728Z,7.60
2022-11-15T12:08:45.168Z,7.60
2022-11-15T12:11:20.066Z,7.60
2022-11-15T12:13:51.709Z,7.50
2022-11-15T12:16:27.285Z,7.60
2022-11-15T12:18:56.096Z,7.50
2022-11-15T12:21:28.328Z,7.50
2022-11-15T12:24:05.246Z,7.50
2022-11-15T12:26:48.698Z,7.50
2022-11-15T12:29:30.268Z,7.50
2022-11-15T12:32:00.977Z,7.50
2022-11-15T12:34:49.808Z,7.40
2022-11-15T12:37:35.124Z,7.30
2022-11-15T12:40:10.392Z,7.30
2022-11-15T12:42:44.620Z,7.30
2022-11-15T12:45:39.542Z,7.20
2022-11-15T12:48:18.698Z,7.20
2022-11-15T12:50:54.664Z,7.10
2022-11-15T12:53:27.812Z,7.10
2022-11-15T12:56:09.547Z,7.00
2022-11-15T12:58:50.950Z,7.00
2022-11-15T13:01:39.166Z,6.90
2022-11-15T13:04:27.352Z,6.90
2022-11-15T13:06:54.325Z,6.90
2022-11-15T13:09:33.474Z,6.80
2022-11-15T13:12:10.399Z,6.80
2022-11-15T13:14:52.629Z,6.70
2022-11-15T13:17:43.832Z,6.70
2022-11-15T13:20:18.824Z,6.60
2022-11-15T13:23:08.665Z,6.60
2022-11-15T13:25:56.949Z,6.50
2022-11-15T13:28:30.095Z,6.40
2022-11-15T13:31:03.429Z,6.40
2022-11-15T13:33:38.680Z,6.30
2022-11-15T13:36:14.678Z,6.30
2022-11-15T13:38:42.660Z,6.30
2022-11-15T13:41:25.218Z,6.30
2022-11-15T13:43:54.444Z,6.30
2022-11-15T13:46:22.718Z,6.20
2022-11-15T13:49:02.683Z,6.20
2022-11-15T13:51:41.369Z,6.10
2022-11-15T13:54:14.217Z,6.00
2022-11-15T13:56:48.805Z,6.00
2022-11-15T13:59:46.031Z,6.00
2022-11-15T14:02:16.880Z,6.00
2022-11-15T14:04:57.914Z,5.90
2022-11-15T14:07:26.773Z,6.00
2022-11-15T14:09:54.175Z,6.00
2022-11-15T14:12:35.876Z,6.00
2022-11-15T14:15:29.201Z,5.90
2022-11-15T14:17:56.180Z,5.90
2022-11-15T14:20:35.513Z,5.90
2022-11-15T14:23:05.622Z,5.90
2022-11-15T14:25:35.146Z,5.90
2022-11-15T14:28:13.032Z,5.80
2022-11-15T14:30:41.473Z,5.80
2022-11-15T14:33:38.328Z,5.80
2022-11-15T14:36:16.408Z,5.80
2022-11-15T14:38:46.490Z,5.80
2022-11-15T14:41:21.015Z,5.80
2022-11-15T14:43:48.432Z,5.80
2022-11-15T14:46:15.324Z,5.80
2022-11-15T14:48:42.449Z,5.80
2022-11-15T14:51:27.894Z,5.80
2022-11-15T14:53:56.385Z,5.80
2022-11-15T14:56:23.359Z,5.80
2022-11-15T14:58:50.347Z,5.80
2022-11-15T15:01:26.296Z,5.80
2022-11-15T15:03:57.043Z,5.80
2022-11-15T15:06:24.301Z,5.80
2022-11-15T15:08:52.053Z,5.90
2022-11-15T15:11:29.847Z,5.90
2022-11-15T15:13:58.413Z,5.90
2022-11-15T15:16:26.028Z,5.90
2022-11-15T15:18:53.237Z,5.80
2022-11-15T15:21:32.342Z,5.80
2022-11-15T15:24:03.220Z,5.90
2022-11-15T15:26:30.272Z,5.80
2022-11-15T15:28:57.256Z,5.70
2022-11-15T15:31:24.174Z,5.60
2022-11-15T15:33:51.060Z,5.60
2022-11-15T15:36:19.898Z,5.50
2022-11-15T15:38:47.762Z,5.50
2022-11-15T15:41:18.333Z,5.40
2022-11-15T15:43:45.729Z,5.40
2022-11-15T15:46:15.442Z,5.40
2022-11-15T15:48:42.595Z,5.40
2022-11-15T15:51:16.923Z,5.40
2022-11-15T15:53:47.043Z,5.50
2022-11-15T15:56:13.971Z,5.50
2022-11-15T15:58:40.899Z,5.50
2022-11-15T16:01:07.806Z,5.50
2022-11-15T16:03:34.726Z,5.60
2022-11-15T16:06:02.167Z,5.60
2022-11-15T16:08:42.637Z,5.60
2022-11-15T16:11:15.635Z,5.60
2022-11-15T16:13:42.530Z,5.60
2022-11-15T16:16:13.735Z,5.50
2022-11-15T16:18:40.679Z,5.50
2022-11-15T16:21:08.782Z,5.40
2022-11-15T16:23:35.878Z,5.40
2022-11-15T16:26:04.115Z,5.30
2022-11-15T16:28:33.790Z,5.20
2022-11-15T16:31:12.303Z,5.10
2022-11-15T16:33:40.393Z,5.10
2022-11-15T16:36:30.540Z,5.10
2022-11-15T16:38:58.742Z,5.10
2022-11-15T16:41:25.870Z,5.00
2022-11-15T16:43:53.047Z,4.90
2022-11-15T16:46:22.075Z,4.90
2022-11-15T16:48:49.749Z,4.90
2022-11-15T16:51:17.407Z,4.80
2022-11-15T16:53:44.777Z,4.80
2022-11-15T16:56:20.699Z,4.70
2022-11-15T16:58:47.714Z,4.70
2022-11-15T17:01:20.264Z,4.70
2022-11-15T17:03:47.426Z,4.50
2022-11-15T17:06:15.532Z,4.50
2022-11-15T17:08:42.782Z,4.50
2022-11-15T17:11:10.317Z,4.40
2022-11-15T17:13:37.209Z,4.40
2022-11-15T17:16:16.444Z,4.40
2022-11-15T17:18:47.038Z,4.30
2022-11-15T17:21:16.441Z,4.30
2022-11-15T17:23:44.125Z,4.20
2022-11-15T17:26:28.784Z,4.20
2022-11-15T17:28:57.297Z,4.10
2022-11-15T17:31:25.537Z,4.10
2022-11-15T17:33:52.573Z,4.00
2022-11-15T17:36:19.539Z,4.00
2022-11-15T17:38:50.481Z,3.90
2022-11-15T17:41:17.305Z,3.90
2022-11-15T17:43:44.293Z,3.80
2022-11-15T17:46:20.591Z,3.80
2022-11-15T17:48:48.559Z,3.70
2022-11-15T17:51:17.684Z,3.70
2022-11-15T17:53:46.835Z,3.70
2022-11-15T17:56:19.871Z,3.70
2022-11-15T17:58:51.709Z,3.70
2022-11-15T18:01:27.443Z,3.60
2022-11-15T18:03:55.587Z,3.60
2022-11-15T18:06:24.205Z,3.60
2022-11-15T18:08:52.804Z,3.50
2022-11-15T18:11:25.392Z,3.50
2022-11-15T18:13:54.426Z,3.50
2022-11-15T18:16:26.114Z,3.50
2022-11-15T18:18:54.350Z,3.50
2022-11-15T18:21:23.696Z,3.50
2022-11-15T18:23:55.351Z,3.50
2022-11-15T18:26:27.112Z,3.50
2022-11-15T18:28:56.469Z,3.50
2022-11-15T18:31:25.925Z,3.50
2022-11-15T18:33:53.632Z,3.50
2022-11-15T18:36:26.451Z,3.50
2022-11-15T18:39:02.764Z,3.50
2022-11-15T18:41:30.961Z,3.50
2022-11-15T18:44:00.759Z,3.50
2022-11-15T18:46:30.852Z,3.50
2022-11-15T18:49:00.104Z,3.50
2022-11-15T18:51:32.246Z,3.60
2022-11-15T18:54:02.735Z,3.50
2022-11-15T18:56:32.234Z,3.50
2022-11-15T18:59:02.207Z,3.50
2022-11-15T19:01:37.763Z,3.50
2022-11-15T19:04:12.021Z,3.40
2022-11-15T19:06:41.402Z,3.30
2022-11-15T19:09:10.155Z,3.30
2022-11-15T19:11:39.772Z,3.30
2022-11-15T19:14:09.939Z,3.30
2022-11-15T19:16:42.168Z,3.30
2022-11-15T19:19:15.575Z,3.30
2022-11-15T19:21:47.726Z,3.30
2022-11-15T19:24:15.458Z,3.30
2022-11-15T19:26:43.108Z,3.30
2022-11-15T19:29:10.742Z,3.30
2022-11-15T19:31:38.352Z,3.30
2022-11-15T19:34:06.574Z,3.30
2022-11-15T19:36:51.362Z,3.20
2022-11-15T19:39:18.633Z,3.10
2022-11-15T19:41:46.600Z,3.10
2022-11-15T19:44:14.293Z,3.10
2022-11-15T19:46:42.088Z,3.10
2022-11-15T19:49:11.264Z,3.20
2022-11-15T19:51:39.532Z,3.20
2022-11-15T19:54:08.891Z,3.30
2022-11-15T19:56:36.451Z,3.30
2022-11-15T19:59:04.950Z,3.30
2022-11-15T20:01:36.321Z,3.40
2022-11-15T20:04:03.928Z,3.30
2022-11-15T20:06:36.291Z,3.30
2022-11-15T20:09:03.777Z,3.40
2022-11-15T20:11:30.758Z,3.40
2022-11-15T20:14:00.467Z,3.40
2022-11-15T20:16:27.400Z,3.40
2022-11-15T20:18:54.697Z,3.40
2022-11-15T20:21:22.105Z,3.40
2022-11-15T20:23:50.982Z,3.30
2022-11-15T20:26:22.039Z,3.40
2022-11-15T20:28:49.205Z,3.40
2022-11-15T20:31:16.823Z,3.40
2022-11-15T20:33:43.994Z,3.40
2022-11-15T20:36:14.580Z,3.40
2022-11-15T20:38:41.992Z,3.30
2022-11-15T20:41:11.099Z,3.30
2022-11-15T20:43:38.256Z,3.20
2022-11-15T20:46:05.363Z,3.10
2022-11-15T20:48:32.609Z,3.10
2022-11-15T20:51:12.243Z,3.10
2022-11-15T20:53:40.293Z,3.10
2022-11-15T20:56:27.545Z,3.10
2022-11-15T20:58:54.953Z,3.20
2022-11-15T21:01:24.409Z,3.20
2022-11-15T21:03:53.362Z,3.10
2022-11-15T21:06:21.162Z,3.10
2022-11-15T21:09:07.928Z,3.20
2022-11-15T21:11:53.918Z,3.20
2022-11-15T21:14:21.368Z,3.20
2022-11-15T21:16:48.343Z,3.10
2022-11-15T21:19:15.259Z,3.00
2022-11-15T21:21:42.253Z,3.00
2022-11-15T21:24:10.369Z,2.90
2022-11-15T21:26:37.659Z,2.90
2022-11-15T21:29:05.080Z,2.80
2022-11-15T21:31:32.505Z,2.70
2022-11-15T21:34:02.489Z,2.80
2022-11-15T21:36:29.830Z,2.80
2022-11-15T21:38:56.816Z,2.70
2022-11-15T21:41:23.741Z,2.70
2022-11-15T21:43:50.748Z,2.70
2022-11-15T21:46:17.673Z,2.70
2022-11-15T21:48:44.632Z,2.70
2022-11-15T21:51:12.226Z,2.60
2022-11-15T21:53:39.182Z,2.60
2022-11-15T21:56:06.955Z,2.50
2022-11-15T21:58:34.167Z,2.50
2022-11-15T22:01:20.307Z,2.40
2022-11-15T22:03:47.295Z,2.40
2022-11-15T22:06:17.816Z,2.30
2022-11-15T22:08:46.606Z,2.30
2022-11-15T22:11:14.741Z,2.20
2022-11-15T22:13:42.332Z,2.10
2022-11-15T22:16:10.032Z,2.10
2022-11-15T22:18:37.920Z,2.00
2022-11-15T22:21:11.057Z,2.10
2022-11-15T22:23:38.591Z,2.00
2022-11-15T22:26:06.815Z,2.00
2022-11-15T22:28:34.166Z,2.00
2022-11-15T22:31:01.680Z,2.00
2022-11-15T22:33:36.205Z,2.10
2022-11-15T22:36:04.696Z,2.10
2022-11-15T22:38:32.538Z,2.10
2022-11-15T22:41:00.338Z,2.20
2022-11-15T22:43:27.925Z,2.20
2022-11-15T22:45:56.840Z,2.30
2022-11-15T22:48:33.175Z,2.30
2022-11-15T22:51:00.884Z,2.30
2022-11-15T22:53:28.823Z,2.40
2022-11-15T22:55:57.884Z,2.30
2022-11-15T22:58:26.918Z,2.40
2022-11-15T23:00:56.102Z,2.50
2022-11-15T23:03:23.963Z,2.50
2022-11-15T23:05:51.246Z,2.50
2022-11-15T23:08:19.306Z,2.40
2022-11-15T23:11:05.269Z,2.40
2022-11-15T23:13:33.703Z,2.40
2022-11-15T23:16:26.071Z,2.30
2022-11-15T23:18:58.021Z,2.30
2022-11-15T23:21:45.937Z,2.30
2022-11-15T23:24:14.354Z,2.30
2022-11-15T23:26:42.276Z,2.30
2022-11-15T23:29:11.536Z,2.30
2022-11-15T23:32:01.944Z,2.30
2022-11-15T23:34:32.735Z,2.40
2022-11-15T23:36:59.950Z,2.40
2022-11-15T23:39:27.114Z,2.40
2022-11-15T23:41:54.340Z,2.50
2022-11-15T23:44:21.384Z,2.50
2022-11-15T23:46:48.439Z,2.50
2022-11-15T23:49:15.407Z,2.60
2022-11-15T23:51:42.454Z,2.60
2022-11-15T23:54:09.732Z,2.70
2022-11-15T23:56:37.974Z,2.70
2022-11-15T23:59:05.843Z,2.70
